Time;durP1;ratioP1;P1;durP2;ratioP2;P2;SDS_P1;SDS_P2;PMS_P1;PMS_P2;Temp;Humidity;BMP_temperature;BMP_pressure;BME280_temperature;BME280_humidity;BME280_pressure;Samples;Min_cycle;Max_cycle;Signal;HPM_P1;HPM_P2
2021/01/20 00:01:29;;;;;;;1.70;1.37;;;3.70;1.00;;;;;;5048967;28;20192;-76
2021/01/20 00:04:00;;;;;;;2.90;1.80;;;3.60;1.00;;;;;;5053084;28;20198;-76
2021/01/20 00:06:30;;;;;;;2.15;1.25;;;3.60;1.00;;;;;;5039888;28;20184;-76
2021/01/20 00:09:00;;;;;;;3.08;1.33;;;3.60;1.00;;;;;;5039018;28;20203;-76
2021/01/20 00:11:29;;;;;;;1.42;1.27;;;3.60;1.00;;;;;;5045977;28;20619;-76
2021/01/20 00:13:56;;;;;;;5.07;1.55;;;3.50;1.00;;;;;;5042633;28;20191;-76
2021/01/20 00:16:29;;;;;;;1.30;1.20;;;3.50;1.00;;;;;;5052537;28;20171;-76
2021/01/20 00:19:13;;;;;;;4.70;1.55;;;3.40;1.00;;;;;;5033496;28;20171;-76
2021/01/20 00:21:59;;;;;;;2.92;1.25;;;3.50;1.00;;;;;;5033766;28;20251;-76
2021/01/20 00:24:30;;;;;;;1.30;1.20;;;3.40;1.00;;;;;;5034035;28;20218;-76
2021/01/20 00:27:00;;;;;;;2.10;1.55;;;3.40;1.00;;;;;;5053974;28;20226;-76
2021/01/20 00:29:29;;;;;;;1.83;1.50;;;3.40;1.00;;;;;;5045845;28;20584;-76
2021/01/20 00:32:00;;;;;;;3.47;1.25;;;3.40;1.00;;;;;;5035653;28;20268;-76
2021/01/20 00:34:30;;;;;;;1.48;1.38;;;3.40;1.00;;;;;;5033667;28;20275;-76
2021/01/20 00:36:56;;;;;;;2.38;1.63;;;3.40;1.00;;;;;;5033832;28;20243;-76
2021/01/20 00:46:35;;;;;;;8.77;1.88;;;3.40;1.00;;;;;;5033322;28;20195;-77
2021/01/20 00:49:53;;;;;;;3.60;1.45;;;3.30;1.00;;;;;;5033810;28;20731;-76
2021/01/20 00:52:53;;;;;;;3.70;1.30;;;3.40;1.00;;;;;;5033746;28;20160;-76
2021/01/20 00:55:30;;;;;;;1.67;0.98;;;3.40;1.00;;;;;;5033856;28;20169;-76
2021/01/20 00:58:38;;;;;;;2.70;1.55;;;3.30;1.00;;;;;;5036350;28;20228;-77
2021/01/20 01:01:04;;;;;;;1.55;1.42;;;3.30;1.00;;;;;;5038985;28;20267;-76
2021/01/20 01:03:30;;;;;;;1.83;1.13;;;3.30;1.00;;;;;;5037408;28;20188;-76
2021/01/20 01:06:17;;;;;;;1.10;1.00;;;3.30;1.00;;;;;;5034594;28;20271;-76
2021/01/20 01:09:00;;;;;;;1.08;0.90;;;3.20;1.00;;;;;;5051495;28;20233;-76
2021/01/20 01:11:47;;;;;;;1.67;1.23;;;3.20;1.00;;;;;;5049278;28;20658;-75
2021/01/20 01:14:24;;;;;;;1.50;1.40;;;3.20;1.00;;;;;;5042913;28;20183;-76
2021/01/20 01:16:49;;;;;;;1.55;1.00;;;3.10;1.00;;;;;;5053200;28;20163;-76
2021/01/20 01:19:41;;;;;;;2.50;1.10;;;3.10;1.00;;;;;;5045991;28;20222;-76
2021/01/20 01:22:07;;;;;;;1.50;0.82;;;3.10;1.00;;;;;;5033775;28;20196;-76
2021/01/20 01:24:42;;;;;;;2.65;1.45;;;3.10;1.00;;;;;;5033823;28;20157;-76
2021/01/20 01:27:07;;;;;;;1.30;1.30;;;3.10;1.00;;;;;;5033755;28;20164;-76
2021/01/20 01:29:33;;;;;;;1.57;1.37;;;3.20;1.00;;;;;;5038953;28;20244;-76
2021/01/20 01:31:59;;;;;;;1.80;1.40;;;3.20;1.00;;;;;;5055652;28;20643;-76
2021/01/20 01:34:36;;;;;;;2.23;1.43;;;3.10;1.00;;;;;;5055981;28;20167;-76
2021/01/20 01:37:01;;;;;;;1.98;1.50;;;3.20;1.00;;;;;;5056218;28;20622;-76
2021/01/20 01:39:28;;;;;;;2.50;1.20;;;3.20;1.00;;;;;;5054497;28;20167;-76
2021/01/20 01:42:00;;;;;;;7.55;1.50;;;;;;;;;;5052576;28;20179;-76
2021/01/20 01:45:00;;;;;;;1.25;1.25;;;3.20;1.00;;;;;;5036410;28;20180;-76
2021/01/20 01:47:47;;;;;;;1.80;1.50;;;3.30;1.00;;;;;;5038610;28;20180;-76
2021/01/20 01:50:24;;;;;;;2.45;1.90;;;3.30;1.00;;;;;;5057049;28;20696;-76
2021/01/20 01:53:00;;;;;;;2.15;1.95;;;3.30;1.00;;;;;;5056423;28;20174;-76
2021/01/20 01:55:26;;;;;;;2.25;1.08;;;;;;;;;;5048038;28;20165;-76
2021/01/20 01:58:30;;;;;;;2.58;1.50;;;3.40;1.00;;;;;;5038982;28;20175;-76
2021/01/20 02:01:07;;;;;;;5.70;1.88;;;3.40;1.00;;;;;;5048419;28;20191;-76
2021/01/20 02:03:33;;;;;;;1.20;1.10;;;3.50;1.00;;;;;;5049855;28;20187;-76
2021/01/20 02:06:23;;;;;;;0.90;0.90;;;3.50;1.00;;;;;;5036724;28;20165;-76
2021/01/20 02:09:00;;;;;;;11.32;1.40;;;3.40;1.00;;;;;;5035653;28;20459;-76
2021/01/20 02:14:48;;;;;;;3.35;1.50;;;3.50;1.00;;;;;;5036286;28;20618;-76
2021/01/20 02:17:16;;;;;;;2.08;1.25;;;3.50;1.00;;;;;;5036192;28;20157;-76
2021/01/20 02:20:19;;;;;;;4.43;1.40;;;3.50;1.00;;;;;;5036292;28;20236;-76
2021/01/20 02:23:09;;;;;;;1.30;1.20;;;3.50;1.00;;;;;;5036123;28;20166;-76
2021/01/20 02:25:41;;;;;;;1.33;1.20;;;3.50;1.00;;;;;;5036130;28;20184;-76
2021/01/20 02:28:48;;;;;;;1.85;1.30;;;3.50;1.00;;;;;;5036259;28;20227;-76
2021/01/20 02:31:48;;;;;;;3.47;1.58;;;3.50;1.00;;;;;;5035596;28;20203;-76
2021/01/20 02:34:25;;;;;;;1.50;1.40;;;3.50;1.00;;;;;;5046967;28;20175;-76
2021/01/20 02:36:55;;;;;;;2.33;1.65;;;3.50;1.00;;;;;;5055698;28;20247;-76
2021/01/20 02:39:22;;;;;;;2.10;1.58;;;3.40;1.00;;;;;;5038062;28;20260;-76
2021/01/20 02:42:01;;;;;;;1.65;1.27;;;3.40;1.00;;;;;;5047155;28;20570;-76
2021/01/20 02:44:36;;;;;;;1.48;1.38;;;3.30;1.00;;;;;;5055907;28;20167;-76
2021/01/20 02:47:07;;;;;;;1.40;1.30;;;3.30;1.00;;;;;;5056073;28;20155;-75
2021/01/20 02:49:34;;;;;;;2.15;1.10;;;3.20;1.00;;;;;;5038575;28;20188;-77
2021/01/20 02:52:12;;;;;;;1.60;1.50;;;3.20;1.00;;;;;;5036076;28;20242;-77
2021/01/20 02:54:42;;;;;;;1.52;1.42;;;3.10;1.00;;;;;;5035690;28;20255;-76
2021/01/20 02:57:14;;;;;;;1.42;1.30;;;3.00;1.00;;;;;;5040594;28;20260;-76
2021/01/20 02:59:43;;;;;;;1.85;1.00;;;3.00;1.00;;;;;;5040234;28;20269;-76
2021/01/20 03:02:42;;;;;;;2.60;1.30;;;2.90;1.00;;;;;;5055419;28;20283;-76
2021/01/20 03:05:10;;;;;;;1.10;1.00;;;2.80;1.00;;;;;;5046407;28;20181;-76
2021/01/20 03:08:12;;;;;;;1.20;1.10;;;2.80;1.00;;;;;;5035548;28;20230;-77
2021/01/20 03:11:12;;;;;;;2.03;1.58;;;2.70;1.00;;;;;;5034037;28;20199;-76
2021/01/20 03:13:45;;;;;;;1.42;1.33;;;2.60;1.00;;;;;;5035619;28;20221;-76
2021/01/20 03:16:11;;;;;;;1.85;1.63;;;2.50;1.00;;;;;;5035351;28;20153;-75
2021/01/20 03:18:42;;;;;;;2.03;1.03;;;2.40;1.00;;;;;;5046470;28;20176;-76
2021/01/20 03:21:24;;;;;;;3.20;1.08;;;2.40;1.00;;;;;;5033688;28;20780;-76
2021/01/20 03:24:11;;;;;;;5.15;1.33;;;2.30;1.00;;;;;;5035349;28;20211;-76
2021/01/20 03:26:37;;;;;;;5.55;1.23;;;;;;;;;;5035060;28;20179;-76
2021/01/20 03:29:03;;;;;;;3.47;2.20;;;2.10;1.00;;;;;;5055078;28;20198;-76
2021/01/20 03:31:30;;;;;;;1.63;1.30;;;2.10;1.00;;;;;;5054893;28;20610;-76
2021/01/20 03:34:41;;;;;;;0.88;0.88;;;2.10;1.00;;;;;;5054863;28;20159;-76
2021/01/20 03:41:23;;;;;;;2.60;1.25;;;2.10;1.00;;;;;;5034782;28;20241;-76
2021/01/20 03:43:49;;;;;;;1.00;1.00;;;2.10;1.00;;;;;;5046378;28;20170;-76
2021/01/20 03:46:30;;;;;;;1.23;1.00;;;2.10;1.00;;;;;;5054834;28;20168;-76
2021/01/20 03:49:23;;;;;;;1.42;1.20;;;2.20;1.00;;;;;;5042151;28;20227;-76
2021/01/20 03:52:35;;;;;;;1.25;1.13;;;2.20;1.00;;;;;;5050171;28;20168;-76
2021/01/20 03:55:12;;;;;;;3.58;1.00;;;2.20;1.00;;;;;;5034706;28;20173;-77
2021/01/20 03:57:42;;;;;;;3.60;1.88;;;2.20;1.00;;;;;;5045812;28;20548;-76
2021/01/20 04:00:41;;;;;;;0.95;0.95;;;2.20;1.00;;;;;;5041638;28;20593;-76
2021/01/20 04:03:41;;;;;;;1.33;1.23;;;2.20;1.00;;;;;;5047656;28;20180;-76
2021/01/20 04:06:41;;;;;;;3.65;1.00;;;2.30;1.00;;;;;;5053959;28;20164;-76
2021/01/20 04:09:07;;;;;;;0.82;0.80;;;2.30;1.00;;;;;;5033975;28;20275;-76
2021/01/20 04:12:11;;;;;;;1.40;1.13;;;2.30;1.00;;;;;;5033046;28;20322;-76
2021/01/20 04:14:54;;;;;;;0.82;0.82;;;2.30;1.00;;;;;;5039741;28;20160;-76
2021/01/20 04:17:41;;;;;;;1.45;1.00;;;2.30;1.00;;;;;;5054171;28;20198;-76
2021/01/20 04:20:12;;;;;;;1.10;1.05;;;2.30;1.00;;;;;;5054079;28;20238;-76
2021/01/20 04:22:48;;;;;;;1.98;1.25;;;2.40;1.00;;;;;;5054032;28;20191;-76
2021/01/20 04:28:42;;;;;;;0.90;0.70;;;2.40;1.00;;;;;;5054065;28;20186;-76
2021/01/20 04:31:30;;;;;;;1.05;0.93;;;2.30;1.00;;;;;;5053135;28;20187;-78
2021/01/20 04:34:00;;;;;;;1.02;0.80;;;2.40;1.00;;;;;;5053194;28;20168;-77
2021/01/20 04:36:42;;;;;;;1.27;1.08;;;2.30;1.00;;;;;;5034042;28;20187;-77
2021/01/20 04:39:41;;;;;;;1.45;1.25;;;2.40;1.00;;;;;;5033585;28;20608;-76
2021/01/20 04:42:13;;;;;;;0.88;0.50;;;2.40;1.00;;;;;;5042744;28;20183;-76
2021/01/20 04:44:42;;;;;;;1.30;0.95;;;2.50;1.00;;;;;;5040380;28;20177;-77
2021/01/20 04:47:30;;;;;;;1.00;0.90;;;2.40;1.00;;;;;;5033568;28;20619;-77
2021/01/20 04:50:41;;;;;;;0.85;0.85;;;2.50;1.00;;;;;;5033476;28;20239;-77
2021/01/20 04:53:42;;;;;;;0.88;0.88;;;2.50;1.00;;;;;;5033491;28;20145;-77
2021/01/20 04:56:30;;;;;;;1.90;1.40;;;2.70;1.00;;;;;;5034112;28;20165;-77
2021/01/20 04:59:12;;;;;;;1.60;1.20;;;2.70;1.00;;;;;;5035263;28;20195;-82
2021/01/20 05:01:42;;;;;;;0.80;0.80;;;2.70;1.00;;;;;;5033720;28;20195;-80
2021/01/20 05:04:41;;;;;;;0.80;0.80;;;2.80;1.00;;;;;;5033325;28;20238;-80
2021/01/20 05:07:08;;;;;;;1.23;1.17;;;2.90;1.00;;;;;;5037435;28;20191;-80
2021/01/20 05:09:42;;;;;;;1.08;0.90;;;3.00;1.00;;;;;;5037572;28;20188;-80
2021/01/20 05:12:33;;;;;;;1.05;0.95;;;3.00;1.00;;;;;;5047121;28;20540;-83
2021/01/20 05:15:15;;;;;;;1.20;1.10;;;3.10;1.00;;;;;;5056301;28;20631;-81
2021/01/20 05:18:11;;;;;;;1.05;0.95;;;3.20;1.00;;;;;;5057180;28;20168;-78
2021/01/20 05:21:15;;;;;;;0.98;0.90;;;3.40;1.00;;;;;;5041233;28;20200;-77
2021/01/20 05:24:19;;;;;;;2.55;1.27;;;3.40;1.00;;;;;;5037329;28;20194;-77
2021/01/20 05:27:00;;;;;;;1.88;1.25;;;3.40;1.00;;;;;;5037692;28;20168;-77
2021/01/20 05:29:36;;;;;;;1.40;1.30;;;3.60;1.00;;;;;;5037148;28;20227;-76
2021/01/20 05:32:41;;;;;;;2.90;1.00;;;3.60;1.00;;;;;;5037076;28;20176;-76
2021/01/20 05:35:12;;;;;;;1.17;1.08;;;3.70;1.00;;;;;;5040131;28;20171;-77
2021/01/20 05:38:29;;;;;;;1.67;1.33;;;3.80;1.00;;;;;;5056825;28;20164;-76
2021/01/20 05:44:17;;;;;;;1.58;0.90;;;4.00;1.00;;;;;;5037096;28;20302;-76
2021/01/20 05:47:23;;;;;;;1.43;1.33;;;4.00;1.00;;;;;;5036628;28;20607;-76
2021/01/20 05:50:10;;;;;;;1.30;1.20;;;4.10;1.00;;;;;;5036700;28;20340;-76
2021/01/20 05:53:00;;;;;;;1.17;1.10;;;4.10;1.00;;;;;;5053505;28;20627;-75
2021/01/20 05:55:42;;;;;;;1.10;1.02;;;4.20;1.00;;;;;;5048899;28;20171;-77
2021/01/20 05:58:39;;;;;;;1.60;1.50;;;4.20;1.00;;;;;;5053790;28;20647;-76
2021/01/20 06:01:09;;;;;;;2.15;1.30;;;4.20;1.00;;;;;;5044038;28;20774;-76
2021/01/20 06:03:43;;;;;;;3.63;1.50;;;4.30;1.00;;;;;;5037450;28;20935;-75
2021/01/20 06:06:13;;;;;;;1.50;1.05;;;4.30;1.00;;;;;;5054888;28;20673;-75
2021/01/20 06:08:42;;;;;;;1.80;1.20;;;4.40;1.00;;;;;;5050390;28;20301;-76
2021/01/20 06:11:13;;;;;;;23.40;5.25;;;4.40;1.00;;;;;;5053982;28;20639;-75
2021/01/20 06:13:54;;;;;;;4.63;1.13;;;4.50;1.00;;;;;;5054039;28;20176;-77
2021/01/20 06:16:42;;;;;;;3.33;1.30;;;4.50;1.00;;;;;;5054027;28;20171;-76
2021/01/20 06:19:13;;;;;;;2.33;1.10;;;4.50;1.00;;;;;;5048984;28;20176;-76
2021/01/20 06:21:44;;;;;;;1.92;1.50;;;4.60;1.00;;;;;;5038131;28;20168;-76
2021/01/20 06:24:45;;;;;;;2.28;1.80;;;4.60;1.00;;;;;;5053751;28;20249;-78
2021/01/20 06:27:51;;;;;;;1.23;1.13;;;4.60;1.00;;;;;;5024202;28;20196;-77
2021/01/20 06:30:27;;;;;;;1.10;1.00;;;4.70;1.00;;;;;;5033202;28;20222;-76
2021/01/20 06:33:13;;;;;;;4.55;1.50;;;4.70;1.00;;;;;;5028660;28;20210;-76
2021/01/20 06:35:47;;;;;;;3.17;1.52;;;4.70;1.00;;;;;;5033379;28;20161;-76
2021/01/20 06:38:27;;;;;;;1.98;1.20;;;4.70;1.00;;;;;;5030609;28;20567;-76
2021/01/20 06:41:10;;;;;;;0.90;0.90;;;4.70;1.00;;;;;;5032617;28;20184;-76
2021/01/20 06:43:46;;;;;;;1.30;1.20;;;4.70;1.00;;;;;;5026598;28;20184;-76
2021/01/20 06:46:18;;;;;;;2.03;1.30;;;4.80;1.00;;;;;;5019511;28;20516;-77
2021/01/20 06:48:56;;;;;;;1.38;1.20;;;4.80;1.00;;;;;;5012425;28;20168;-76
2021/01/20 06:51:23;;;;;;;3.42;1.67;;;4.80;1.00;;;;;;5030754;28;20188;-77
2021/01/20 06:54:00;;;;;;;1.20;1.10;;;6.60;1.00;;;;;;5032468;28;20252;-76
2021/01/20 06:56:30;;;;;;;1.50;1.40;;;4.80;1.00;;;;;;5032311;28;20326;-75
2021/01/20 06:59:30;;;;;;;1.75;1.55;;;4.80;1.00;;;;;;5030405;28;20228;-76
2021/01/20 07:02:02;;;;;;;1.20;1.10;;;4.90;1.00;;;;;;5019610;28;20238;-76
2021/01/20 07:04:37;;;;;;;1.48;1.30;;;4.90;1.00;;;;;;5038991;28;20279;-76
2021/01/20 07:07:13;;;;;;;4.05;1.38;;;4.90;1.00;;;;;;5046201;28;20214;-77
2021/01/20 07:09:57;;;;;;;1.40;1.30;;;4.90;1.00;;;;;;5054233;28;20274;-77
2021/01/20 07:12:23;;;;;;;1.63;1.50;;;4.90;1.00;;;;;;5054085;28;20156;-76
2021/01/20 07:14:50;;;;;;;3.92;1.20;;;5.00;1.00;;;;;;5037673;28;20591;-76
2021/01/20 07:17:19;;;;;;;1.98;1.63;;;4.90;1.00;;;;;;5053831;28;20176;-76
2021/01/20 07:19:46;;;;;;;8.55;1.55;;;5.00;1.00;;;;;;5053761;28;20325;-76
2021/01/20 07:22:15;;;;;;;1.40;1.25;;;5.00;1.00;;;;;;5049948;28;20187;-76
2021/01/20 07:24:41;;;;;;;1.20;1.10;;;;;;;;;;5044542;28;20180;-75
2021/01/20 07:27:09;;;;;;;1.42;1.33;;;5.00;1.00;;;;;;5053467;28;20709;-75
2021/01/20 07:29:39;;;;;;;6.00;1.75;;;;;;;;;;5049325;28;20617;-76
2021/01/20 07:32:06;;;;;;;2.33;1.35;;;;;;;;;;5041297;28;20263;-76
2021/01/20 07:34:44;;;;;;;2.20;1.43;;;5.10;1.00;;;;;;5044129;28;20567;-76
2021/01/20 07:37:14;;;;;;;1.80;1.27;;;5.20;1.00;;;;;;5051499;28;20443;-76
2021/01/20 07:39:43;;;;;;;1.40;1.30;;;5.20;1.00;;;;;;5043139;28;20196;-77
2021/01/20 07:42:09;;;;;;;3.80;1.55;;;5.20;1.00;;;;;;5046066;28;20558;-76
2021/01/20 07:45:02;;;;;;;2.25;1.20;;;5.20;1.00;;;;;;5054274;28;20218;-76
2021/01/20 07:47:28;;;;;;;4.45;1.40;;;5.20;1.00;;;;;;5034671;28;20264;-76
2021/01/20 07:50:00;;;;;;;1.20;1.07;;;5.20;1.00;;;;;;5038516;28;20295;-76
2021/01/20 07:52:30;;;;;;;1.50;1.40;;;5.30;1.00;;;;;;5054450;28;20198;-76
2021/01/20 07:58:38;;;;;;;2.67;1.10;;;5.30;1.00;;;;;;5054328;28;20195;-76
2021/01/20 08:01:06;;;;;;;2.33;1.40;;;5.40;1.00;;;;;;5054476;28;20634;-75
2021/01/20 08:03:36;;;;;;;1.67;1.30;;;5.40;1.00;;;;;;5045472;28;20675;-75
2021/01/20 08:06:07;;;;;;;1.30;1.20;;;5.50;1.00;;;;;;5044409;28;20179;-76
2021/01/20 08:08:33;;;;;;;3.20;1.73;;;;;;;;;;5053138;28;20194;-76
2021/01/20 08:11:01;;;;;;;2.00;1.20;;;5.60;1.00;;;;;;5051629;28;20219;-76
2021/01/20 08:13:30;;;;;;;11.70;1.50;;;5.60;1.00;;;;;;5034164;28;20554;-77
2021/01/20 08:15:56;;;;;;;1.93;1.23;;;;;;;;;;5048293;28;20191;-76
2021/01/20 08:18:23;;;;;;;4.73;1.47;;;5.70;1.00;;;;;;5047404;28;20427;-76
2021/01/20 08:20:49;;;;;;;0.97;0.93;;;5.70;1.00;;;;;;5044456;28;20437;-76
2021/01/20 08:23:34;;;;;;;1.27;1.17;;;5.70;1.00;;;;;;5052950;28;20394;-76
2021/01/20 08:26:04;;;;;;;1.73;1.00;;;5.80;1.00;;;;;;5050748;28;20428;-75
2021/01/20 08:28:31;;;;;;;1.77;1.30;;;;;;;;;;5052935;28;20527;-75
2021/01/20 08:30:57;;;;;;;2.83;1.33;;;;;;;;;;5052924;28;20507;-76
2021/01/20 08:33:23;;;;;;;1.23;1.13;;;;;;;;;;5044332;28;20410;-76
2021/01/20 08:35:57;;;;;;;1.80;1.40;;;6.00;1.00;;;;;;5045569;28;20406;-76
2021/01/20 08:38:27;;;;;;;2.03;1.20;;;6.10;1.00;;;;;;5049817;28;20842;-76
2021/01/20 08:41:09;;;;;;;1.03;1.03;;;6.10;1.00;;;;;;5052549;28;20413;-76
2021/01/20 08:43:35;;;;;;;2.70;1.00;;;;;;;;;;5043913;28;20426;-75
2021/01/20 08:46:24;;;;;;;1.63;1.20;;;6.20;1.00;;;;;;5043204;28;20499;-76
2021/01/20 08:48:57;;;;;;;1.33;1.23;;;6.20;1.00;;;;;;5040122;28;20418;-76
2021/01/20 08:51:24;;;;;;;1.63;1.20;;;6.30;1.00;;;;;;5034626;28;20450;-75
2021/01/20 08:53:50;;;;;;;1.10;0.93;;;6.40;1.00;;;;;;5032650;28;20946;-75
2021/01/20 08:56:26;;;;;;;1.13;1.00;;;6.50;1.00;;;;;;5032741;28;20383;-75
2021/01/20 08:58:53;;;;;;;7.10;1.60;;;6.60;1.00;;;;;;5032448;28;20391;-75
2021/01/20 09:01:21;;;;;;;1.60;1.17;;;6.60;1.00;;;;;;5042846;28;20409;-75
2021/01/20 09:03:54;;;;;;;2.33;1.30;;;6.70;1.00;;;;;;5040615;28;20898;-75
2021/01/20 09:06:20;;;;;;;1.23;1.13;;;;;;;;;;5050506;28;20414;-75
2021/01/20 09:08:46;;;;;;;2.47;1.37;;;6.80;1.00;;;;;;5052543;28;20886;-76
2021/01/20 09:11:12;;;;;;;3.20;1.70;;;;;;;;;;5052504;28;20401;-76
2021/01/20 09:13:38;;;;;;;1.20;1.10;;;;;;;;;;5041844;28;20188;-76
2021/01/20 09:16:04;;;;;;;3.60;1.70;;;7.10;1.00;;;;;;5034272;28;20454;-76
2021/01/20 09:18:30;;;;;;;4.60;1.73;;;7.20;1.00;;;;;;5051504;28;20441;-75
2021/01/20 09:20:56;;;;;;;1.60;1.13;;;;;;;;;;5052379;28;20410;-75
2021/01/20 09:23:22;;;;;;;2.03;1.33;;;7.40;1.00;;;;;;5052435;28;20164;-75
2021/01/20 09:25:48;;;;;;;1.60;1.40;;;7.40;1.00;;;;;;5040137;28;20512;-76
2021/01/20 09:28:14;;;;;;;1.00;0.90;;;;;;;;;;5046944;28;20418;-76
2021/01/20 09:30:40;;;;;;;2.30;1.20;;;;;;;;;;5052156;28;20469;-76
2021/01/20 09:33:06;;;;;;;2.57;1.53;;;7.50;1.00;;;;;;5050324;28;20414;-76
2021/01/20 09:35:32;;;;;;;4.73;1.53;;;;;;;;;;5032430;28;20392;-76
2021/01/20 09:37:59;;;;;;;2.53;1.67;;;7.60;1.00;;;;;;5031987;28;20189;-75
2021/01/20 09:40:26;;;;;;;5.30;1.70;;;7.60;1.00;;;;;;5046340;28;20931;-75
2021/01/20 09:42:53;;;;;;;2.33;1.53;;;7.50;1.00;;;;;;5051784;28;20429;-76
2021/01/20 09:45:29;;;;;;;1.20;1.20;;;7.60;1.00;;;;;;5049963;28;20401;-75
2021/01/20 09:48:06;;;;;;;17.83;1.80;;;7.50;1.00;;;;;;5032542;28;20399;-76
2021/01/20 09:50:36;;;;;;;3.70;1.57;;;7.60;1.00;;;;;;5032293;28;20949;-76
2021/01/20 09:53:03;;;;;;;4.23;1.67;;;7.70;1.00;;;;;;5035906;28;21025;-76
2021/01/20 09:55:29;;;;;;;6.67;1.90;;;7.70;1.00;;;;;;5035531;28;20772;-76
2021/01/20 09:57:55;;;;;;;2.60;1.70;;;;;;;;;;5047186;28;20501;-75
2021/01/20 10:00:21;;;;;;;1.73;1.43;;;7.80;1.00;;;;;;5056155;28;20410;-75
2021/01/20 10:02:48;;;;;;;3.60;1.70;;;;;;;;;;5051105;28;20769;-75
2021/01/20 10:05:14;;;;;;;1.90;1.40;;;;;;;;;;5053637;28;20438;-75
2021/01/20 10:07:40;;;;;;;3.17;1.87;;;;;;;;;;5053816;28;20468;-76
2021/01/20 10:10:11;;;;;;;8.93;1.60;;;7.80;1.00;;;;;;5035486;28;20526;-76
2021/01/20 10:12:38;;;;;;;4.60;1.70;;;8.00;1.00;;;;;;5043192;28;20407;-75
2021/01/20 10:15:05;;;;;;;4.03;2.57;;;;;;;;;;5053645;28;20399;-75
2021/01/20 10:17:31;;;;;;;1.80;1.60;;;;;;;;;;5055206;28;20947;-76
2021/01/20 10:19:56;;;;;;;6.20;2.03;;;8.00;1.00;;;;;;5036971;28;20984;-76
2021/01/20 10:22:22;;;;;;;5.00;2.20;;;;;;;;;;5047622;28;20413;-76
2021/01/20 10:24:48;;;;;;;2.63;1.70;;;8.20;1.00;;;;;;5055069;28;20188;-76
2021/01/20 10:27:14;;;;;;;1.50;1.33;;;;;;;;;;5055023;28;20794;-76
2021/01/20 10:29:40;;;;;;;1.87;1.50;;;8.30;1.00;;;;;;5035832;28;20204;-75
2021/01/20 10:32:07;;;;;;;1.67;1.57;;;;;;;;;;5041357;28;20437;-76
2021/01/20 10:34:33;;;;;;;2.00;1.33;;;8.50;1.00;;;;;;5053421;28;20175;-76
2021/01/20 10:36:59;;;;;;;1.63;1.30;;;;;;;;;;5048985;28;20418;-76
2021/01/20 10:39:24;;;;;;;3.33;1.80;;;8.70;1.00;;;;;;5054628;28;20163;-75
2021/01/20 10:41:52;;;;;;;5.10;1.20;;;8.70;1.00;;;;;;5043938;28;20506;-75
2021/01/20 10:44:18;;;;;;;6.40;1.80;;;8.70;1.00;;;;;;5033170;28;20196;-75
2021/01/20 10:46:48;;;;;;;2.03;1.70;;;8.70;1.00;;;;;;5047199;28;20429;-75
2021/01/20 10:49:24;;;;;;;3.30;1.60;;;8.70;1.00;;;;;;5035722;28;20208;-75
2021/01/20 10:51:54;;;;;;;2.97;1.57;;;8.80;1.00;;;;;;5040726;28;20428;-75
2021/01/20 10:54:20;;;;;;;3.80;1.80;;;8.80;1.00;;;;;;5044482;28;20419;-75
2021/01/20 10:56:48;;;;;;;3.47;1.80;;;9.00;1.00;;;;;;5053073;28;20417;-75
2021/01/20 10:59:13;;;;;;;1.87;1.63;;;9.10;1.00;;;;;;5038769;28;20457;-76
2021/01/20 11:01:39;;;;;;;3.70;1.20;;;9.10;1.00;;;;;;5042570;28;20435;-76
2021/01/20 11:04:05;;;;;;;1.90;1.70;;;;;;;;;;5042982;28;20183;-75
2021/01/20 11:06:31;;;;;;;2.60;1.70;;;9.10;1.00;;;;;;5050599;28;20270;-75
2021/01/20 11:08:59;;;;;;;2.97;1.50;;;9.10;1.00;;;;;;5040325;28;20526;-75
2021/01/20 11:11:25;;;;;;;2.67;1.70;;;9.20;1.00;;;;;;5034290;28;20520;-75
2021/01/20 11:13:51;;;;;;;9.20;1.67;;;;;;;;;;5053960;28;20421;-75
2021/01/20 11:16:18;;;;;;;1.30;1.20;;;;;;;;;;5054238;28;20444;-76
2021/01/20 11:18:44;;;;;;;2.70;1.80;;;;;;;;;;5041816;28;20451;-75
2021/01/20 11:21:14;;;;;;;1.73;1.50;;;9.60;1.00;;;;;;5052573;28;20901;-75
2021/01/20 11:23:41;;;;;;;1.20;1.10;;;9.70;1.00;;;;;;5052742;28;20421;-75
2021/01/20 11:26:09;;;;;;;3.83;1.77;;;9.80;1.00;;;;;;5053895;28;20468;-76
2021/01/20 11:28:34;;;;;;;3.47;1.67;;;9.90;1.00;;;;;;5053814;28;20403;-76
2021/01/20 11:31:00;;;;;;;1.57;1.00;;;;;;;;;;5053861;28;20467;-76
2021/01/20 11:33:26;;;;;;;1.40;1.30;;;10.00;1.00;;;;;;5054119;28;20217;-75
2021/01/20 11:35:52;;;;;;;1.80;1.47;;;;;;;;;;5053731;28;20421;-76
2021/01/20 11:38:18;;;;;;;1.70;1.20;;;10.20;1.00;;;;;;5042458;28;20271;-76
2021/01/20 11:40:44;;;;;;;2.03;1.47;;;10.20;1.00;;;;;;5033703;28;20941;-75
2021/01/20 11:43:09;;;;;;;2.40;1.30;;;10.20;1.00;;;;;;5033582;28;20171;-75
2021/01/20 11:45:37;;;;;;;1.40;1.30;;;10.20;1.00;;;;;;5033375;28;20756;-76
2021/01/20 11:48:05;;;;;;;2.00;1.50;;;10.30;1.00;;;;;;5050630;28;20180;-75
2021/01/20 11:50:32;;;;;;;1.80;1.40;;;10.20;1.00;;;;;;5052041;28;20946;-76
2021/01/20 11:52:58;;;;;;;2.90;1.07;;;;;;;;;;5053416;28;20741;-75
2021/01/20 11:55:24;;;;;;;2.30;1.30;;;10.30;1.00;;;;;;5051828;28;20397;-75
2021/01/20 11:57:51;;;;;;;5.13;1.47;;;;;;;;;;5048634;28;20727;-76
2021/01/20 12:00:18;;;;;;;1.40;1.30;;;10.50;1.00;;;;;;5040320;28;20434;-76
2021/01/20 12:02:52;;;;;;;3.93;1.40;;;10.50;1.00;;;;;;5033103;28;20423;-75
2021/01/20 12:05:18;;;;;;;1.60;1.03;;;10.50;1.00;;;;;;5051883;28;20500;-76
2021/01/20 12:07:45;;;;;;;1.20;1.10;;;10.40;1.00;;;;;;5041195;28;20513;-76
2021/01/20 12:10:13;;;;;;;2.87;1.47;;;10.40;1.00;;;;;;5033196;28;20241;-75
2021/01/20 12:12:39;;;;;;;3.03;1.10;;;10.40;1.00;;;;;;5045118;28;20501;-75
2021/01/20 12:15:06;;;;;;;1.30;1.20;;;10.30;1.00;;;;;;5052925;28;20485;-75
2021/01/20 12:17:32;;;;;;;3.63;1.60;;;10.30;1.00;;;;;;5049084;28;20491;-76
2021/01/20 12:19:58;;;;;;;6.00;1.50;;;10.30;1.00;;;;;;5033677;28;20505;-75
2021/01/20 12:22:24;;;;;;;1.50;1.40;;;;;;;;;;5050468;28;20892;-75
2021/01/20 12:24:54;;;;;;;3.27;1.20;;;10.10;1.00;;;;;;5053049;28;20214;-75
2021/01/20 12:27:19;;;;;;;1.30;1.20;;;10.10;1.00;;;;;;5052801;28;20413;-75
2021/01/20 12:29:45;;;;;;;1.37;1.20;;;;;;;;;;5052693;28;20450;-75
2021/01/20 12:32:11;;;;;;;2.63;1.10;;;10.20;1.00;;;;;;5051526;28;20178;-75
2021/01/20 12:34:37;;;;;;;2.50;1.43;;;10.30;1.00;;;;;;5053191;28;20452;-75
2021/01/20 12:37:03;;;;;;;1.40;1.30;;;;;;;;;;5052737;28;20167;-76
2021/01/20 12:39:28;;;;;;;2.23;1.10;;;10.50;1.00;;;;;;5052417;28;20217;-75
2021/01/20 12:41:54;;;;;;;1.17;1.10;;;10.50;1.00;;;;;;5041746;28;20454;-75
2021/01/20 12:44:20;;;;;;;1.10;1.00;;;;;;;;;;5045434;28;20231;-75
2021/01/20 12:46:46;;;;;;;2.47;1.47;;;10.70;1.00;;;;;;5038881;28;20250;-75
2021/01/20 12:49:12;;;;;;;1.60;0.90;;;;;;;;;;5052810;28;20603;-76
2021/01/20 12:51:42;;;;;;;1.40;1.30;;;10.90;1.00;;;;;;5052562;28;20195;-76
2021/01/20 12:54:08;;;;;;;2.70;1.20;;;10.90;1.00;;;;;;5041860;28;20484;-76
2021/01/20 12:56:33;;;;;;;2.10;1.50;;;11.00;1.00;;;;;;5031590;28;20427;-75
2021/01/20 12:58:59;;;;;;;1.37;1.20;;;;;;;;;;5041474;28;20180;-75
2021/01/20 13:01:25;;;;;;;1.50;1.20;;;11.00;1.00;;;;;;5048115;28;20649;-75
2021/01/20 13:03:51;;;;;;;2.30;1.13;;;;;;;;;;5050676;28;20434;-75
2021/01/20 13:06:16;;;;;;;1.10;0.90;;;11.20;1.00;;;;;;5047151;28;20208;-75
2021/01/20 13:08:42;;;;;;;2.60;1.50;;;;;;;;;;5041419;28;20427;-75
2021/01/20 13:11:08;;;;;;;1.10;0.93;;;11.20;1.00;;;;;;5044949;28;20556;-76
2021/01/20 13:13:34;;;;;;;6.73;1.70;;;;;;;;;;5042454;28;20426;-75
2021/01/20 13:16:01;;;;;;;5.10;1.27;;;11.30;1.00;;;;;;5050156;28;20174;-75
2021/01/20 13:18:27;;;;;;;3.53;0.97;;;;;;;;;;5047778;28;20787;-75
2021/01/20 13:20:53;;;;;;;1.23;1.13;;;;;;;;;;5037305;28;20867;-75
2021/01/20 13:23:18;;;;;;;11.63;3.60;;;11.40;1.00;;;;;;5049507;28;20501;-76
2021/01/20 13:25:44;;;;;;;1.20;0.87;;;11.40;1.00;;;;;;5049085;28;20434;-75
2021/01/20 13:28:10;;;;;;;1.73;1.10;;;;;;;;;;5042191;28;20356;-76
2021/01/20 13:30:37;;;;;;;2.10;0.97;;;11.30;1.00;;;;;;5037196;28;20679;-76
2021/01/20 13:33:03;;;;;;;1.10;0.97;;;;;;;;;;5054706;28;20779;-75
2021/01/20 13:35:29;;;;;;;1.03;0.93;;;11.10;1.00;;;;;;5056369;28;20408;-75
2021/01/20 13:37:54;;;;;;;1.27;1.17;;;11.10;1.00;;;;;;5055498;28;20811;-75
2021/01/20 13:40:20;;;;;;;1.80;1.00;;;;;;;;;;5055948;28;20180;-75
2021/01/20 13:42:46;;;;;;;1.50;1.40;;;11.00;1.00;;;;;;5055886;28;20164;-75
2021/01/20 13:45:12;;;;;;;2.90;1.10;;;;;;;;;;5055298;28;20920;-75
2021/01/20 13:47:38;;;;;;;0.97;0.90;;;11.10;1.00;;;;;;5055894;28;20175;-75
2021/01/20 13:50:04;;;;;;;0.83;0.83;;;11.10;1.00;;;;;;5055928;28;20453;-75
2021/01/20 13:52:30;;;;;;;1.00;0.90;;;;;;;;;;5054578;28;20401;-75
2021/01/20 13:54:56;;;;;;;0.97;0.80;;;11.10;1.00;;;;;;5051404;28;20412;-75
2021/01/20 13:57:22;;;;;;;1.20;1.13;;;;;;;;;;5052293;28;20790;-75
2021/01/20 13:59:48;;;;;;;6.73;0.87;;;11.10;1.00;;;;;;5035761;28;20196;-75
2021/01/20 14:02:14;;;;;;;1.20;0.80;;;;;;;;;;5037835;28;20792;-75
2021/01/20 14:04:39;;;;;;;0.83;0.83;;;11.00;1.00;;;;;;5035702;28;20204;-75
2021/01/20 14:07:05;;;;;;;0.80;0.80;;;11.00;1.00;;;;;;5042141;28;20497;-75
2021/01/20 14:09:37;;;;;;;2.30;1.00;;;10.90;1.00;;;;;;5055295;28;20208;-75
2021/01/20 14:12:04;;;;;;;1.03;0.93;;;10.90;1.00;;;;;;5046981;28;20992;-75
2021/01/20 14:14:32;;;;;;;5.60;1.47;;;11.00;1.00;;;;;;5055489;28;20752;-75
2021/01/20 14:16:58;;;;;;;0.90;0.90;;;11.00;1.00;;;;;;5053796;28;20790;-75
2021/01/20 14:19:24;;;;;;;1.63;1.10;;;10.90;1.00;;;;;;5043545;28;20410;-75